createdAt,value
2022-10-31T00:00:19.070Z,11.50
2022-10-31T00:01:19.019Z,11.60
2022-10-31T00:02:19.149Z,11.60
2022-10-31T00:03:19.345Z,11.40
2022-10-31T00:04:18.990Z,12.00
2022-10-31T00:05:18.974Z,11.00
2022-10-31T00:06:18.981Z,12.00
2022-10-31T00:07:19.450Z,12.10
2022-10-31T00:08:19.025Z,12.00
2022-10-31T00:09:18.913Z,11.30
2022-10-31T00:10:18.902Z,11.60
2022-10-31T00:11:19.084Z,11.60
2022-10-31T00:12:18.886Z,11.70
2022-10-31T00:13:18.951Z,11.20
2022-10-31T00:14:19.085Z,11.50
2022-10-31T00:15:18.832Z,11.70
2022-10-31T00:16:18.825Z,11.10
2022-10-31T00:17:18.817Z,10.50
2022-10-31T00:18:18.804Z,12.30
2022-10-31T00:19:18.773Z,10.60
2022-10-31T00:20:18.764Z,11.30
2022-10-31T00:21:18.754Z,10.20
2022-10-31T00:22:19.014Z,10.90
2022-10-31T00:23:18.728Z,11.20
2022-10-31T00:24:19.675Z,10.00
2022-10-31T00:25:18.694Z,11.60
2022-10-31T00:26:18.691Z,10.50
2022-10-31T00:27:18.708Z,10.70
2022-10-31T00:29:18.648Z,10.30
2022-10-31T00:30:18.642Z,10.10
2022-10-31T00:31:18.616Z,10.40
2022-10-31T00:32:18.614Z,10.10
2022-10-31T00:33:18.599Z,10.20
2022-10-31T00:34:18.579Z,10.70
2022-10-31T00:35:18.608Z,10.60
2022-10-31T00:36:18.554Z,11.10
2022-10-31T00:37:18.550Z,11.10
2022-10-31T00:38:18.539Z,11.00
2022-10-31T00:39:18.529Z,10.50
2022-10-31T00:40:18.500Z,10.90
2022-10-31T00:41:18.488Z,10.90
2022-10-31T00:42:18.496Z,11.50
2022-10-31T00:43:18.463Z,10.70
2022-10-31T00:44:18.451Z,11.40
2022-10-31T00:45:18.432Z,11.00
2022-10-31T00:46:19.390Z,11.60
2022-10-31T00:47:18.441Z,10.50
2022-10-31T00:48:18.414Z,11.20
2022-10-31T00:49:18.383Z,10.80
2022-10-31T00:50:18.372Z,11.00
2022-10-31T00:51:18.362Z,11.20
2022-10-31T00:52:18.592Z,10.60
2022-10-31T00:53:18.325Z,11.10
2022-10-31T00:54:18.324Z,12.10
2022-10-31T00:55:18.313Z,11.20
2022-10-31T00:56:18.295Z,11.10
2022-10-31T00:57:18.295Z,11.50
2022-10-31T00:58:18.267Z,10.60
2022-10-31T00:59:18.253Z,12.20
2022-10-31T01:00:18.251Z,11.50
2022-10-31T01:01:18.335Z,11.60
2022-10-31T01:02:18.351Z,11.70
2022-10-31T01:03:18.197Z,11.10
2022-10-31T01:04:18.195Z,10.20
2022-10-31T01:05:18.177Z,10.70
2022-10-31T01:06:18.167Z,10.80
2022-10-31T01:07:18.142Z,11.50
2022-10-31T01:08:18.140Z,10.80
2022-10-31T01:09:18.127Z,11.30
2022-10-31T01:10:18.116Z,11.90
2022-10-31T01:11:18.099Z,10.40
2022-10-31T01:12:18.092Z,11.50
2022-10-31T01:13:18.756Z,11.20
2022-10-31T01:14:18.063Z,12.30
2022-10-31T01:15:18.172Z,12.20
2022-10-31T01:16:18.240Z,10.70
2022-10-31T01:17:18.012Z,11.10
2022-10-31T01:18:18.022Z,10.20
2022-10-31T01:19:17.995Z,10.50
2022-10-31T01:20:17.985Z,10.50
2022-10-31T01:21:17.972Z,10.30
2022-10-31T01:22:17.953Z,11.80
2022-10-31T01:23:17.932Z,10.60
2022-10-31T01:24:18.133Z,11.40
2022-10-31T01:25:17.921Z,11.80
2022-10-31T01:26:17.915Z,10.70
2022-10-31T01:27:17.894Z,10.90
2022-10-31T01:28:17.915Z,11.70
2022-10-31T01:29:17.863Z,11.50
2022-10-31T01:30:17.858Z,12.80
2022-10-31T01:31:17.854Z,11.40
2022-10-31T01:32:17.829Z,11.20
2022-10-31T01:33:17.813Z,10.80
2022-10-31T01:34:17.801Z,10.20
2022-10-31T01:35:17.786Z,11.70
2022-10-31T01:36:17.777Z,11.00
2022-10-31T01:37:17.756Z,11.30
2022-10-31T01:38:17.784Z,11.20
2022-10-31T01:39:17.826Z,10.70
2022-10-31T01:40:17.717Z,10.40
2022-10-31T01:41:17.906Z,10.80
2022-10-31T01:42:17.967Z,11.10
2022-10-31T01:43:17.707Z,10.70
2022-10-31T01:44:17.688Z,10.40
2022-10-31T01:45:17.647Z,10.50
2022-10-31T01:46:17.660Z,10.00
2022-10-31T01:47:17.622Z,9.90
2022-10-31T01:48:17.774Z,10.80
2022-10-31T01:49:17.589Z,10.70
2022-10-31T01:50:17.581Z,10.40
2022-10-31T01:51:17.570Z,10.50
2022-10-31T01:52:18.512Z,11.00
2022-10-31T01:53:19.872Z,10.30
2022-10-31T01:54:17.550Z,10.70
2022-10-31T01:55:17.532Z,9.80
2022-10-31T01:56:17.503Z,10.20
2022-10-31T01:57:17.511Z,9.80
2022-10-31T01:58:19.980Z,11.50
2022-10-31T01:59:17.463Z,11.00
2022-10-31T02:00:17.962Z,10.40
2022-10-31T02:01:17.600Z,10.80
2022-10-31T02:03:49.721Z,10.30
2022-10-31T02:04:26.896Z,9.80
2022-10-31T02:05:26.620Z,10.40
2022-10-31T02:06:26.599Z,9.70
2022-10-31T02:07:26.595Z,9.50
2022-10-31T02:08:26.582Z,11.30
2022-10-31T02:09:26.561Z,11.00
2022-10-31T02:10:27.212Z,11.20
2022-10-31T02:11:28.463Z,10.50
2022-10-31T02:12:26.521Z,9.90
2022-10-31T02:14:26.493Z,10.60
2022-10-31T02:15:26.485Z,10.50
2022-10-31T02:16:28.144Z,10.40
2022-10-31T02:17:26.462Z,10.60
2022-10-31T02:18:26.454Z,10.80
2022-10-31T02:19:26.438Z,10.50
2022-10-31T02:20:27.006Z,10.70
2022-10-31T02:21:26.413Z,12.20
2022-10-31T02:22:26.648Z,10.60
2022-10-31T02:23:26.373Z,10.80
2022-10-31T02:24:26.356Z,9.80
2022-10-31T02:25:26.355Z,10.30
2022-10-31T02:26:26.344Z,10.00
2022-10-31T02:27:26.323Z,9.90
2022-10-31T02:28:27.158Z,9.10
2022-10-31T02:29:26.886Z,9.70
2022-10-31T02:30:26.292Z,9.60
2022-10-31T02:31:26.266Z,10.40
2022-10-31T02:32:27.278Z,9.60
2022-10-31T02:33:26.256Z,9.80
2022-10-31T02:34:27.287Z,9.60
2022-10-31T02:35:30.906Z,9.80
2022-10-31T02:36:26.219Z,9.80
2022-10-31T02:37:26.189Z,9.60
2022-10-31T02:38:26.189Z,10.70
2022-10-31T02:39:26.369Z,10.40
2022-10-31T02:40:26.919Z,10.40
2022-10-31T02:41:26.141Z,10.30
2022-10-31T02:42:26.950Z,9.50
2022-10-31T02:43:26.112Z,11.00
2022-10-31T02:44:26.467Z,10.30
2022-10-31T02:45:27.010Z,11.10
2022-10-31T02:46:29.613Z,10.20
2022-10-31T02:47:26.284Z,9.90
2022-10-31T02:48:26.057Z,10.90
2022-10-31T02:49:26.030Z,11.60
2022-10-31T02:50:26.033Z,11.10
2022-10-31T02:51:26.011Z,10.30
2022-10-31T02:52:26.004Z,10.80
2022-10-31T02:53:25.980Z,10.60
2022-10-31T02:54:25.970Z,10.30
2022-10-31T02:55:25.962Z,10.80
2022-10-31T02:56:25.944Z,10.90
2022-10-31T02:57:26.728Z,10.40
2022-10-31T02:58:27.018Z,10.30
2022-10-31T02:59:25.913Z,10.50
2022-10-31T03:00:26.086Z,9.50
2022-10-31T03:01:26.754Z,11.10
2022-10-31T03:02:27.829Z,9.30
2022-10-31T03:03:26.964Z,11.10
2022-10-31T03:04:26.243Z,10.40
2022-10-31T03:05:25.835Z,10.60
2022-10-31T03:06:25.825Z,10.50
2022-10-31T03:07:25.805Z,10.70
2022-10-31T03:08:25.796Z,9.70
2022-10-31T03:09:25.776Z,10.60
2022-10-31T03:10:25.773Z,10.80
2022-10-31T03:11:25.757Z,10.90
2022-10-31T03:12:25.738Z,10.30
2022-10-31T03:13:25.729Z,10.60
2022-10-31T03:14:26.017Z,10.20
2022-10-31T03:15:25.698Z,10.40
2022-10-31T03:16:25.688Z,9.50
2022-10-31T03:17:25.711Z,10.60
2022-10-31T03:18:25.658Z,9.60
2022-10-31T03:19:25.638Z,10.20
2022-10-31T03:20:25.640Z,9.80
2022-10-31T03:21:26.609Z,9.90
2022-10-31T03:22:25.600Z,9.90
2022-10-31T03:23:25.604Z,9.30
2022-10-31T03:24:25.641Z,9.80
2022-10-31T03:25:25.812Z,10.20
2022-10-31T03:26:25.557Z,9.90
2022-10-31T03:27:26.282Z,10.50
2022-10-31T03:28:26.343Z,9.20
2022-10-31T03:29:25.901Z,9.10
2022-10-31T03:30:25.502Z,9.90
2022-10-31T03:31:25.482Z,10.10
2022-10-31T03:32:25.522Z,9.00
2022-10-31T03:33:25.469Z,9.80
2022-10-31T03:34:25.453Z,9.40
2022-10-31T03:35:25.705Z,9.80
2022-10-31T03:36:25.423Z,9.50
2022-10-31T03:37:26.283Z,9.80
2022-10-31T03:38:25.383Z,9.70
2022-10-31T03:39:25.854Z,9.40
2022-10-31T03:40:25.362Z,9.70
2022-10-31T03:41:25.354Z,9.90
2022-10-31T03:42:25.345Z,9.70
2022-10-31T03:43:25.532Z,9.70
2022-10-31T03:44:25.545Z,9.90
2022-10-31T03:45:25.324Z,9.50
2022-10-31T03:46:25.288Z,9.90
2022-10-31T03:47:25.288Z,10.90
2022-10-31T03:48:25.266Z,9.80
2022-10-31T03:49:25.269Z,9.50
2022-10-31T03:50:25.299Z,9.20
2022-10-31T03:51:25.858Z,9.30
2022-10-31T03:52:26.918Z,9.20
2022-10-31T03:53:25.219Z,9.40
2022-10-31T03:54:25.189Z,10.00
2022-10-31T03:55:25.172Z,10.10
2022-10-31T03:56:26.100Z,10.20
2022-10-31T03:57:25.170Z,10.70
2022-10-31T03:58:25.149Z,10.70
2022-10-31T03:59:25.131Z,10.10
2022-10-31T04:00:25.107Z,10.30
2022-10-31T04:01:25.298Z,9.90
2022-10-31T04:02:26.125Z,10.80
2022-10-31T04:03:25.266Z,10.70
2022-10-31T04:04:25.316Z,10.10
2022-10-31T04:05:25.397Z,10.40
2022-10-31T04:06:25.422Z,9.80
2022-10-31T04:07:25.034Z,10.10
2022-10-31T04:08:25.042Z,9.40
2022-10-31T04:09:24.992Z,9.70
2022-10-31T04:10:31.859Z,10.20
2022-10-31T04:11:26.203Z,10.20
2022-10-31T04:12:24.953Z,9.90
2022-10-31T04:13:25.842Z,10.50
2022-10-31T04:14:24.914Z,10.60
2022-10-31T04:15:25.869Z,10.40
2022-10-31T04:16:24.914Z,10.40
2022-10-31T04:17:24.884Z,10.60
2022-10-31T04:18:24.871Z,10.50
2022-10-31T04:19:24.861Z,10.30
2022-10-31T04:20:24.836Z,10.40
2022-10-31T04:21:25.174Z,10.60
2022-10-31T04:22:24.815Z,10.00
2022-10-31T04:23:24.818Z,10.90
2022-10-31T04:24:24.786Z,9.80
2022-10-31T04:25:24.794Z,10.80
2022-10-31T04:26:25.378Z,10.60
2022-10-31T04:27:25.425Z,11.30
2022-10-31T04:28:24.758Z,10.90
2022-10-31T04:29:24.727Z,10.20
2022-10-31T04:30:25.567Z,11.00
2022-10-31T04:31:24.703Z,11.10
2022-10-31T04:32:25.138Z,10.70
2022-10-31T04:33:26.218Z,11.00
2022-10-31T04:34:24.717Z,11.50
2022-10-31T04:35:24.659Z,10.60
2022-10-31T04:36:24.630Z,10.80
2022-10-31T04:37:25.364Z,10.60
2022-10-31T04:38:25.409Z,10.30
2022-10-31T04:39:26.671Z,10.40
2022-10-31T04:40:25.523Z,10.60
2022-10-31T04:41:25.061Z,9.90
2022-10-31T04:42:24.570Z,10.60
2022-10-31T04:43:24.656Z,9.70
2022-10-31T04:44:24.693Z,9.40
2022-10-31T04:45:24.518Z,9.20
2022-10-31T04:46:24.792Z,10.20
2022-10-31T04:47:24.742Z,10.50
2022-10-31T04:48:24.472Z,10.30
2022-10-31T04:49:24.968Z,9.90
2022-10-31T04:50:24.444Z,10.30
2022-10-31T04:51:24.450Z,10.80
2022-10-31T04:52:24.423Z,10.30
2022-10-31T04:53:24.403Z,10.90
2022-10-31T04:54:24.401Z,10.40
2022-10-31T04:55:24.384Z,11.00
2022-10-31T04:56:24.370Z,9.40
2022-10-31T04:57:24.354Z,10.20
2022-10-31T04:58:24.349Z,10.80
2022-10-31T04:59:24.358Z,10.50
2022-10-31T05:00:24.322Z,10.10
2022-10-31T05:01:24.409Z,11.10
2022-10-31T05:02:24.347Z,10.80
2022-10-31T05:03:24.276Z,11.20
2022-10-31T05:04:24.266Z,10.30
2022-10-31T05:05:24.247Z,10.10
2022-10-31T05:06:24.236Z,10.50
2022-10-31T05:07:24.243Z,9.80
2022-10-31T05:08:24.217Z,10.90
2022-10-31T05:09:24.208Z,10.60
2022-10-31T05:10:24.183Z,10.00
2022-10-31T05:11:24.168Z,10.10
2022-10-31T05:12:24.170Z,9.90
2022-10-31T05:13:24.144Z,10.10
2022-10-31T05:14:24.124Z,11.80
2022-10-31T05:15:24.379Z,11.10
2022-10-31T05:16:24.099Z,11.20
2022-10-31T05:17:24.106Z,10.20
2022-10-31T05:18:24.081Z,10.80
2022-10-31T05:19:24.063Z,10.60
2022-10-31T05:20:24.050Z,10.90
2022-10-31T05:21:24.999Z,10.70
2022-10-31T05:22:24.042Z,11.00
2022-10-31T05:23:24.012Z,10.50
2022-10-31T05:24:24.002Z,10.60
2022-10-31T05:25:23.992Z,10.40
2022-10-31T05:26:23.972Z,11.70
2022-10-31T05:27:24.922Z,10.20
2022-10-31T05:28:23.950Z,10.90
2022-10-31T05:29:23.943Z,10.70
2022-10-31T05:30:23.934Z,10.40
2022-10-31T05:31:23.920Z,10.70
2022-10-31T05:32:23.893Z,9.90
2022-10-31T05:33:23.878Z,9.70
2022-10-31T05:34:23.880Z,11.80
2022-10-31T05:35:23.864Z,11.80
2022-10-31T05:36:23.835Z,9.70
2022-10-31T05:37:23.835Z,10.50
2022-10-31T05:38:24.087Z,10.50
2022-10-31T05:39:23.801Z,10.10
2022-10-31T05:40:23.788Z,10.00
2022-10-31T05:41:23.778Z,11.10
2022-10-31T05:42:23.778Z,10.00
2022-10-31T05:43:24.704Z,9.90
2022-10-31T05:44:24.696Z,9.60
2022-10-31T05:45:23.730Z,10.80
2022-10-31T05:46:23.762Z,11.20
2022-10-31T05:47:23.708Z,10.80
2022-10-31T05:48:23.687Z,10.10
2022-10-31T05:49:23.684Z,10.30
2022-10-31T05:50:23.649Z,9.90
2022-10-31T05:51:23.667Z,10.80
2022-10-31T05:52:23.630Z,9.80
2022-10-31T05:53:24.577Z,9.40
2022-10-31T05:54:24.558Z,10.20
2022-10-31T05:55:23.590Z,10.50
2022-10-31T05:56:23.582Z,11.20
2022-10-31T05:57:23.560Z,10.20
2022-10-31T05:58:24.519Z,10.70
2022-10-31T05:59:24.488Z,10.30
2022-10-31T06:00:23.527Z,11.80
2022-10-31T06:01:23.590Z,11.10
2022-10-31T06:02:23.499Z,9.60
2022-10-31T06:03:23.496Z,10.20
2022-10-31T06:04:23.526Z,10.40
2022-10-31T06:05:23.461Z,10.50
2022-10-31T06:06:23.453Z,11.00
2022-10-31T06:07:23.441Z,10.40
2022-10-31T06:08:24.364Z,10.70
2022-10-31T06:09:23.438Z,10.80
2022-10-31T06:10:23.393Z,11.40
2022-10-31T06:11:23.383Z,10.50
2022-10-31T06:12:23.363Z,9.50
2022-10-31T06:13:23.354Z,10.30
2022-10-31T06:14:24.285Z,10.20
2022-10-31T06:15:24.349Z,11.30
2022-10-31T06:16:23.326Z,10.00
2022-10-31T06:17:23.295Z,10.00
2022-10-31T06:18:23.305Z,9.90
2022-10-31T06:19:23.296Z,10.90
2022-10-31T06:20:23.295Z,10.40
2022-10-31T06:21:23.282Z,10.60
2022-10-31T06:22:23.256Z,10.70
2022-10-31T06:23:24.176Z,9.70
2022-10-31T06:24:23.208Z,9.60
2022-10-31T06:25:23.207Z,10.00
2022-10-31T06:26:23.187Z,10.80
2022-10-31T06:27:23.177Z,11.00
2022-10-31T06:28:24.108Z,10.40
2022-10-31T06:29:23.150Z,11.00
2022-10-31T06:30:23.154Z,12.10
2022-10-31T06:31:23.119Z,10.30
2022-10-31T06:32:23.100Z,11.20
2022-10-31T06:33:23.089Z,11.60
2022-10-31T06:34:24.019Z,11.10
2022-10-31T06:35:23.069Z,10.90
2022-10-31T06:36:23.101Z,11.40
2022-10-31T06:37:23.039Z,11.30
2022-10-31T06:38:23.023Z,12.10
2022-10-31T06:39:23.011Z,11.00
2022-10-31T06:40:23.007Z,11.30
2022-10-31T06:41:23.119Z,10.60
2022-10-31T06:42:22.971Z,10.20
2022-10-31T06:43:22.977Z,10.90
2022-10-31T06:44:22.942Z,11.00
2022-10-31T06:45:22.951Z,11.20
2022-10-31T06:46:22.912Z,10.30
2022-10-31T06:47:22.908Z,10.60
2022-10-31T06:48:23.077Z,11.50
2022-10-31T06:49:22.894Z,11.30
2022-10-31T06:50:22.890Z,11.50
2022-10-31T06:51:22.854Z,11.20
2022-10-31T06:52:22.847Z,11.40
2022-10-31T06:53:22.826Z,11.80
2022-10-31T06:54:22.816Z,11.00
2022-10-31T06:55:22.804Z,11.50
2022-10-31T06:56:22.795Z,11.10
2022-10-31T06:57:22.785Z,11.10
2022-10-31T06:58:22.755Z,11.20
2022-10-31T06:59:22.757Z,12.00
2022-10-31T07:00:22.747Z,11.30
2022-10-31T07:01:22.876Z,11.60
2022-10-31T07:02:22.782Z,11.70
2022-10-31T07:03:22.694Z,10.80
2022-10-31T07:04:22.678Z,11.70
2022-10-31T07:05:22.676Z,11.00
2022-10-31T07:06:22.661Z,11.50
2022-10-31T07:07:22.647Z,12.30
2022-10-31T07:08:22.629Z,11.30
2022-10-31T07:09:22.623Z,11.00
2022-10-31T07:10:22.609Z,11.40
2022-10-31T07:11:22.589Z,12.30
2022-10-31T07:12:22.590Z,11.70
2022-10-31T07:13:22.569Z,11.00
2022-10-31T07:14:22.549Z,11.80
2022-10-31T07:15:22.550Z,11.10
2022-10-31T07:16:22.522Z,10.70
2022-10-31T07:17:26.040Z,11.40
2022-10-31T07:18:23.490Z,10.20
2022-10-31T07:19:22.490Z,11.20
2022-10-31T07:20:22.473Z,10.50
2022-10-31T07:21:22.461Z,12.00
2022-10-31T07:22:22.444Z,11.90
2022-10-31T07:23:22.430Z,11.00
2022-10-31T07:24:22.434Z,11.40
2022-10-31T07:25:22.402Z,10.60
2022-10-31T07:26:22.392Z,11.80
2022-10-31T07:27:22.373Z,10.80
2022-10-31T07:28:22.373Z,11.10
2022-10-31T07:29:22.354Z,11.50
2022-10-31T07:30:22.343Z,10.80
2022-10-31T07:31:22.355Z,11.60
2022-10-31T07:32:22.315Z,11.90
2022-10-31T07:33:22.303Z,11.30
2022-10-31T07:34:22.285Z,10.80
2022-10-31T07:35:22.285Z,10.90
2022-10-31T07:36:22.268Z,10.90
2022-10-31T07:37:22.245Z,11.20
2022-10-31T07:38:22.252Z,10.40
2022-10-31T07:39:22.216Z,11.10
2022-10-31T07:40:22.214Z,10.90
2022-10-31T07:41:22.196Z,10.30
2022-10-31T07:42:22.191Z,10.90
2022-10-31T07:43:22.186Z,11.30
2022-10-31T07:44:22.225Z,11.00
2022-10-31T07:45:22.148Z,11.80
2022-10-31T07:46:22.139Z,11.20
2022-10-31T07:47:22.120Z,10.80
2022-10-31T07:48:22.120Z,11.60
2022-10-31T07:49:22.128Z,12.00
2022-10-31T07:50:22.099Z,10.70
2022-10-31T07:51:22.069Z,11.20
2022-10-31T07:52:22.059Z,12.30
2022-10-31T07:53:22.040Z,11.50
2022-10-31T07:54:22.059Z,11.20
2022-10-31T07:55:22.033Z,11.70
2022-10-31T07:56:22.017Z,10.60
2022-10-31T07:57:25.145Z,10.90
2022-10-31T07:58:22.012Z,10.80
2022-10-31T07:59:21.959Z,10.30
2022-10-31T08:00:21.958Z,11.40
2022-10-31T08:01:21.932Z,10.90
2022-10-31T08:02:21.922Z,11.20
2022-10-31T08:03:21.924Z,11.70
2022-10-31T08:04:21.903Z,9.80
2022-10-31T08:05:21.883Z,11.40
2022-10-31T08:06:21.872Z,10.70
2022-10-31T08:07:21.928Z,11.50
2022-10-31T08:08:21.923Z,10.90
2022-10-31T08:09:21.824Z,11.40
2022-10-31T08:10:21.825Z,11.10
2022-10-31T08:11:21.796Z,11.00
2022-10-31T08:12:22.748Z,10.80
2022-10-31T08:13:21.785Z,11.90
2022-10-31T08:14:21.775Z,11.20
2022-10-31T08:15:21.747Z,12.20
2022-10-31T08:16:21.748Z,11.50
2022-10-31T08:17:21.726Z,12.40
2022-10-31T08:18:21.727Z,11.20
2022-10-31T08:19:21.937Z,11.20
2022-10-31T08:20:21.689Z,10.90
2022-10-31T08:21:21.668Z,10.90
2022-10-31T08:22:21.657Z,10.00
2022-10-31T08:23:22.598Z,11.40
2022-10-31T08:24:21.641Z,10.70
2022-10-31T08:25:21.609Z,11.70
2022-10-31T08:26:21.609Z,11.10
2022-10-31T08:27:21.591Z,11.00
2022-10-31T08:28:21.592Z,10.90
2022-10-31T08:29:21.570Z,10.70
2022-10-31T08:30:21.560Z,11.10
2022-10-31T08:31:21.564Z,10.70
2022-10-31T08:32:21.528Z,11.20
2022-10-31T08:33:21.522Z,11.40
2022-10-31T08:34:21.526Z,11.10
2022-10-31T08:35:21.498Z,10.60
2022-10-31T08:36:21.512Z,11.20
2022-10-31T08:37:21.460Z,11.80
2022-10-31T08:38:21.463Z,12.20
2022-10-31T08:39:21.432Z,10.80
2022-10-31T08:40:21.450Z,11.50
2022-10-31T08:41:21.413Z,10.90
2022-10-31T08:42:21.403Z,12.00
2022-10-31T08:43:21.396Z,10.90
2022-10-31T08:44:21.410Z,11.80
2022-10-31T08:45:21.354Z,11.60
2022-10-31T08:46:21.340Z,11.40
2022-10-31T08:47:21.325Z,11.10
2022-10-31T08:48:21.325Z,10.60
2022-10-31T08:49:21.300Z,12.20
2022-10-31T08:50:21.295Z,12.30
2022-10-31T08:51:21.286Z,11.50
2022-10-31T08:52:23.457Z,12.90
2022-10-31T08:53:22.257Z,12.90
2022-10-31T08:54:21.247Z,12.60
2022-10-31T08:55:21.219Z,11.60
2022-10-31T08:56:21.222Z,12.00
2022-10-31T08:57:21.215Z,11.80
2022-10-31T08:58:21.198Z,12.50
2022-10-31T08:59:21.181Z,14.40
2022-10-31T09:00:21.168Z,12.30
2022-10-31T09:01:21.228Z,13.10
2022-10-31T09:02:21.235Z,12.40
2022-10-31T09:03:21.130Z,11.60
2022-10-31T09:04:21.120Z,13.10
2022-10-31T09:05:21.090Z,13.30
2022-10-31T09:06:21.126Z,12.40
2022-10-31T09:07:21.625Z,12.40
2022-10-31T09:08:21.068Z,11.70
2022-10-31T09:09:21.040Z,12.20
2022-10-31T09:10:21.035Z,12.30
2022-10-31T09:11:21.015Z,14.00
2022-10-31T09:12:21.010Z,11.50
2022-10-31T09:13:21.003Z,12.20
2022-10-31T09:14:20.984Z,12.00
2022-10-31T09:15:21.928Z,11.90
2022-10-31T09:16:20.953Z,13.00
2022-10-31T09:17:20.944Z,12.70
2022-10-31T09:18:20.924Z,12.70
2022-10-31T09:19:20.922Z,12.00
2022-10-31T09:20:20.897Z,12.00
2022-10-31T09:21:20.888Z,11.00
2022-10-31T09:22:20.882Z,12.60
2022-10-31T09:23:20.919Z,12.40
2022-10-31T09:24:20.876Z,11.80
2022-10-31T09:25:20.838Z,11.50
2022-10-31T09:26:20.826Z,12.60
2022-10-31T09:27:20.840Z,13.10
2022-10-31T09:28:20.801Z,12.00
2022-10-31T09:29:20.785Z,13.10
2022-10-31T09:30:20.776Z,13.00
2022-10-31T09:31:20.760Z,13.40
2022-10-31T09:32:20.759Z,12.70
2022-10-31T09:33:20.743Z,13.00
2022-10-31T09:34:20.724Z,12.90
2022-10-31T09:35:24.695Z,12.90
2022-10-31T09:36:21.690Z,14.60
2022-10-31T09:37:20.700Z,13.90
2022-10-31T09:38:20.661Z,14.00
2022-10-31T09:39:20.651Z,14.10
2022-10-31T09:40:20.644Z,13.30
2022-10-31T09:41:20.631Z,14.80
2022-10-31T09:42:20.672Z,13.70
2022-10-31T09:43:20.613Z,14.30
2022-10-31T09:44:20.595Z,14.90
2022-10-31T09:45:20.582Z,14.60
2022-10-31T09:46:20.574Z,15.10
2022-10-31T09:47:21.357Z,14.60
2022-10-31T09:48:20.573Z,15.60
2022-10-31T09:49:20.614Z,15.10
2022-10-31T09:50:20.512Z,16.40
2022-10-31T09:51:20.505Z,16.00
2022-10-31T09:52:20.494Z,16.70
2022-10-31T09:53:20.465Z,17.40
2022-10-31T09:54:20.457Z,17.20
2022-10-31T09:55:20.435Z,16.50
2022-10-31T09:56:20.464Z,19.20
2022-10-31T09:57:20.439Z,20.00
2022-10-31T09:58:20.408Z,17.90
2022-10-31T09:59:20.395Z,17.30
2022-10-31T10:00:20.393Z,18.10
2022-10-31T10:01:20.535Z,19.10
2022-10-31T10:02:20.420Z,20.10
2022-10-31T10:03:20.340Z,19.70
2022-10-31T10:04:21.029Z,21.50
2022-10-31T10:05:20.317Z,22.70
2022-10-31T10:06:20.309Z,24.90
2022-10-31T10:07:20.289Z,24.80
2022-10-31T10:08:20.281Z,25.20
2022-10-31T10:10:20.383Z,25.20
2022-10-31T10:11:20.252Z,25.40
2022-10-31T10:12:20.237Z,27.20
2022-10-31T10:13:20.208Z,26.20
2022-10-31T10:14:20.202Z,27.00
2022-10-31T10:15:20.181Z,25.60
2022-10-31T10:16:20.185Z,24.00
2022-10-31T10:17:20.153Z,23.70
2022-10-31T10:18:20.142Z,24.50
2022-10-31T10:19:20.133Z,24.60
2022-10-31T10:20:20.738Z,23.80
2022-10-31T10:21:20.123Z,25.90
2022-10-31T10:22:20.091Z,26.30
2022-10-31T10:23:20.079Z,25.80
2022-10-31T10:24:20.065Z,25.70
2022-10-31T10:25:20.045Z,26.00
2022-10-31T10:26:20.174Z,24.20
2022-10-31T10:27:22.396Z,24.70
2022-10-31T10:28:20.029Z,24.20
2022-10-31T10:29:19.999Z,24.00
2022-10-31T10:30:20.040Z,24.60
2022-10-31T10:31:20.001Z,23.50
2022-10-31T10:32:19.963Z,24.40
2022-10-31T10:33:19.943Z,23.80
2022-10-31T10:34:19.937Z,24.10
2022-10-31T10:35:19.919Z,24.00
2022-10-31T10:36:19.919Z,24.80
2022-10-31T10:37:19.886Z,24.20
2022-10-31T10:38:19.889Z,24.60
2022-10-31T10:39:19.867Z,23.80
2022-10-31T10:40:20.022Z,25.10
2022-10-31T10:41:19.864Z,26.50
2022-10-31T10:42:19.841Z,25.00
2022-10-31T10:43:19.825Z,24.40
2022-10-31T10:44:19.802Z,25.40
2022-10-31T10:45:19.792Z,24.50
2022-10-31T10:46:19.791Z,25.40
2022-10-31T10:47:19.779Z,25.30
2022-10-31T10:48:19.763Z,26.70
2022-10-31T10:49:19.743Z,28.20
2022-10-31T10:50:19.795Z,28.90
2022-10-31T10:51:31.998Z,26.90
2022-10-31T10:52:39.809Z,26.40
2022-10-31T10:53:20.699Z,25.00
2022-10-31T10:54:19.675Z,26.70
2022-10-31T10:55:19.665Z,26.20
2022-10-31T10:56:19.646Z,24.40
2022-10-31T10:57:19.627Z,25.40
2022-10-31T10:58:19.616Z,25.80
2022-10-31T10:59:19.596Z,26.40
2022-10-31T11:00:19.695Z,26.20
2022-10-31T11:01:19.580Z,30.50
2022-10-31T11:02:19.559Z,29.80
2022-10-31T11:03:19.546Z,29.10
2022-10-31T11:04:19.538Z,30.30
2022-10-31T11:05:19.529Z,27.80
2022-10-31T11:06:19.509Z,27.40
2022-10-31T11:07:19.494Z,26.60
2022-10-31T11:08:22.405Z,27.30
2022-10-31T11:09:20.501Z,28.90
2022-10-31T11:10:19.540Z,30.00
2022-10-31T11:11:19.440Z,31.60
2022-10-31T11:12:19.462Z,29.80
2022-10-31T11:13:19.421Z,28.80
2022-10-31T11:14:19.403Z,26.50
2022-10-31T11:15:19.422Z,27.30
2022-10-31T11:16:19.384Z,27.90
2022-10-31T11:17:19.364Z,27.60
2022-10-31T11:18:19.400Z,28.20
2022-10-31T11:19:19.363Z,28.70
2022-10-31T11:20:19.417Z,29.60
2022-10-31T11:21:19.305Z,27.90
2022-10-31T11:22:19.328Z,26.40
2022-10-31T11:23:19.327Z,27.10
2022-10-31T11:24:19.275Z,26.90
2022-10-31T11:25:19.268Z,27.70
2022-10-31T11:26:19.256Z,27.50
2022-10-31T11:27:20.196Z,28.20
2022-10-31T11:28:19.229Z,30.20
2022-10-31T11:29:19.208Z,28.30
2022-10-31T11:30:19.206Z,29.80
2022-10-31T11:31:19.178Z,30.10
2022-10-31T11:32:19.157Z,29.40
2022-10-31T11:33:20.101Z,29.10
2022-10-31T11:34:19.138Z,31.50
2022-10-31T11:35:19.139Z,30.50
2022-10-31T11:36:19.123Z,30.70
2022-10-31T11:37:19.100Z,31.70
2022-10-31T11:38:19.081Z,30.90
2022-10-31T11:39:19.081Z,28.70
2022-10-31T11:40:19.061Z,29.00
2022-10-31T11:41:19.067Z,28.50
2022-10-31T11:42:19.024Z,30.70
2022-10-31T11:43:19.019Z,29.00
2022-10-31T11:44:19.000Z,31.40
2022-10-31T11:45:19.004Z,30.50
2022-10-31T11:46:18.974Z,29.40
2022-10-31T11:47:18.973Z,29.70
2022-10-31T11:48:18.954Z,31.90
2022-10-31T11:49:18.944Z,31.30
2022-10-31T11:50:18.926Z,32.60
2022-10-31T11:51:19.879Z,30.90
2022-10-31T11:52:18.906Z,31.80
2022-10-31T11:53:18.897Z,33.30
2022-10-31T11:54:18.876Z,32.30
2022-10-31T11:55:18.877Z,31.80
2022-10-31T11:56:18.847Z,31.80
2022-10-31T11:57:18.835Z,31.80
2022-10-31T11:58:18.817Z,31.60
2022-10-31T11:59:18.817Z,33.20
2022-10-31T12:00:18.869Z,31.60
2022-10-31T12:01:18.838Z,30.70
2022-10-31T12:02:18.972Z,30.60
2022-10-31T12:03:18.807Z,31.70
2022-10-31T12:04:18.740Z,30.60
2022-10-31T12:05:18.740Z,29.60
2022-10-31T12:06:18.720Z,29.70
2022-10-31T12:07:18.749Z,29.80
2022-10-31T12:08:18.731Z,29.70
2022-10-31T12:09:18.673Z,29.50
2022-10-31T12:10:18.672Z,28.80
2022-10-31T12:11:18.652Z,29.00
2022-10-31T12:12:18.651Z,28.40
2022-10-31T12:13:18.622Z,27.30
2022-10-31T12:14:18.605Z,28.80
2022-10-31T12:15:18.615Z,28.70
2022-10-31T12:16:18.584Z,28.70
2022-10-31T12:17:18.574Z,28.00
2022-10-31T12:18:18.573Z,28.20
2022-10-31T12:19:18.544Z,29.90
2022-10-31T12:20:18.537Z,29.10
2022-10-31T12:21:18.523Z,29.70
2022-10-31T12:22:18.516Z,28.10
2022-10-31T12:23:18.496Z,28.30
2022-10-31T12:24:18.486Z,29.40
2022-10-31T12:25:18.479Z,29.10
2022-10-31T12:26:18.454Z,28.80
2022-10-31T12:27:18.476Z,30.20
2022-10-31T12:28:18.428Z,27.60
2022-10-31T12:29:18.430Z,27.10
2022-10-31T12:30:18.419Z,28.50
2022-10-31T12:31:18.399Z,27.70
2022-10-31T12:32:18.379Z,28.50
2022-10-31T12:33:18.373Z,28.20
2022-10-31T12:34:18.352Z,28.40
2022-10-31T12:35:18.352Z,28.90
2022-10-31T12:36:18.322Z,28.20
2022-10-31T12:37:18.311Z,28.20
2022-10-31T12:38:18.309Z,28.00
2022-10-31T12:39:18.283Z,29.50
2022-10-31T12:40:18.282Z,27.50
2022-10-31T12:41:18.278Z,29.00
2022-10-31T12:42:18.261Z,28.00
2022-10-31T12:43:18.233Z,28.60
2022-10-31T12:44:18.227Z,28.50
2022-10-31T12:45:18.216Z,28.30
2022-10-31T12:46:18.195Z,25.80
2022-10-31T12:47:18.185Z,28.40
2022-10-31T12:48:18.166Z,28.90
2022-10-31T12:49:18.156Z,29.30
2022-10-31T12:50:18.150Z,29.40
2022-10-31T12:51:18.136Z,27.20
2022-10-31T12:52:18.116Z,28.60
2022-10-31T12:54:18.088Z,28.60
2022-10-31T12:55:18.087Z,29.10
2022-10-31T12:56:18.070Z,30.10
2022-10-31T12:57:18.070Z,28.40
2022-10-31T12:58:18.080Z,29.80
2022-10-31T12:59:18.066Z,29.40
2022-10-31T13:00:18.025Z,28.50